Time;durP1;ratioP1;P1;durP2;ratioP2;P2;SDS_P1;SDS_P2;PMS_P1;PMS_P2;Temp;Humidity;BMP_temperature;BMP_pressure;BME280_temperature;BME280_humidity;BME280_pressure;Samples;Min_cycle;Max_cycle;Signal;HPM_P1;HPM_P2
2023/10/06 00:00:46;;;;;;;17.20;9.07;;;;;;;;;;10486456;28;20170;-80
2023/10/06 00:05:49;;;;;;;26.48;10.60;;;;;;;;;;10490537;28;20075;-79
2023/10/06 00:10:51;;;;;;;26.42;9.10;;;;;;;;;;10494108;28;20017;-79
2023/10/06 00:15:51;;;;;;;22.17;11.52;;;;;;;;;;10494038;28;20411;-76
2023/10/06 00:20:56;;;;;;;28.33;10.75;;;;;;;;;;10493806;28;20085;-79
2023/10/06 00:26:00;;;;;;;21.33;10.82;;;;;;;;;;10493548;28;20021;-76
2023/10/06 00:31:09;;;;;;;16.35;9.23;;;;;;;;;;10493694;28;20020;-83
2023/10/06 00:36:18;;;;;;;16.35;8.13;;;;;;;;;;10493074;28;20128;-79
2023/10/06 00:41:43;;;;;;;17.20;8.93;;;;;;;;;;10493633;28;20016;-79
2023/10/06 00:46:45;;;;;;;17.85;8.05;;;;;;;;;;10492369;28;20032;-79
2023/10/06 00:51:47;;;;;;;16.45;9.00;;;;;;;;;;10491815;28;20031;-79
2023/10/06 00:56:48;;;;;;;20.35;8.00;;;;;;;;;;10492162;28;20039;-75
2023/10/06 01:01:49;;;;;;;20.90;9.38;;;;;;;;;;10491153;28;20029;-75
2023/10/06 01:06:54;;;;;;;65.15;60.55;;;;;;;;;;10491517;28;20020;-79
2023/10/06 01:11:57;;;;;;;141.20;131.88;;;;;;;;;;10491922;28;20484;-82
2023/10/06 01:17:16;;;;;;;293.40;275.20;;;;;;;;;;10491728;28;20099;-75
2023/10/06 01:22:33;;;;;;;20.13;9.35;;;;;;;;;;10491244;28;20081;-83
2023/10/06 01:27:33;;;;;;;22.50;8.60;;;;;;;;;;10490930;28;20127;-79
2023/10/06 01:32:34;;;;;;;17.75;10.27;;;;;;;;;;10490443;28;20394;-80
2023/10/06 01:37:34;;;;;;;471.27;439.83;;;;;;;;;;10491274;28;20484;-80
2023/10/06 01:42:35;;;;;;;16.83;8.35;;;;;;;;;;10489761;28;20503;-78
2023/10/06 01:47:35;;;;;;;16.23;8.18;;;;;;;;;;10490156;28;20152;-81
2023/10/06 01:52:39;;;;;;;20.35;8.48;;;;;;;;;;10489219;28;20107;-78
2023/10/06 01:57:39;;;;;;;16.58;14.63;;;;;;;;;;10491260;28;20099;-80
2023/10/06 02:02:40;;;;;;;17.20;8.27;;;;;;;;;;10490768;28;20028;-79
2023/10/06 02:07:44;;;;;;;20.67;16.30;;;;;;;;;;10489670;28;20438;-79
2023/10/06 02:12:48;;;;;;;18.80;8.35;;;;;;;;;;10488746;28;20564;-77
2023/10/06 02:17:50;;;;;;;68.72;63.85;;;;;;;;;;10488974;28;20024;-80
2023/10/06 02:22:55;;;;;;;17.70;9.52;;;;;;;;;;10488722;28;20074;-76
2023/10/06 02:27:56;;;;;;;20.98;9.32;;;;;;;;;;10487254;28;20031;-79
2023/10/06 02:32:56;;;;;;;14.82;9.05;;;;;;;;;;10489489;28;20124;-76
2023/10/06 02:37:58;;;;;;;22.05;10.27;;;;;;;;;;10489713;28;20119;-83
2023/10/06 02:43:02;;;;;;;21.00;9.68;;;;;;;;;;10489308;28;20441;-78
2023/10/06 02:48:13;;;;;;;24.95;10.32;;;;;;;;;;10503952;28;20123;-83
2023/10/06 02:53:14;;;;;;;24.42;12.82;;;;;;;;;;10500534;28;20020;-77
2023/10/06 02:58:27;;;;;;;18.70;10.65;;;;;;;;;;10494171;28;20028;-78
2023/10/06 03:03:29;;;;;;;20.98;10.88;;;;;;;;;;10489254;28;20109;-81
2023/10/06 03:08:30;;;;;;;26.23;10.45;;;;;;;;;;10486661;28;20027;-80
2023/10/06 03:13:43;;;;;;;25.08;11.18;;;;;;;;;;10488653;28;20017;-80
2023/10/06 03:18:44;;;;;;;24.63;15.27;;;;;;;;;;10466062;28;20036;-80
2023/10/06 03:23:47;;;;;;;19.30;9.88;;;;;;;;;;10456699;28;20040;-82
2023/10/06 03:28:52;;;;;;;25.70;11.05;;;;;;;;;;10464558;28;20028;-82
2023/10/06 03:33:56;;;;;;;18.50;9.98;;;;;;;;;;10494059;28;20270;-75
2023/10/06 03:38:57;;;;;;;18.75;9.60;;;;;;;;;;10481109;28;20071;-82
2023/10/06 03:44:03;;;;;;;23.10;9.30;;;;;;;;;;10486077;28;20052;-82
2023/10/06 03:49:04;;;;;;;20.60;9.45;;;;;;;;;;10484294;28;20033;-87
2023/10/06 03:54:10;;;;;;;18.25;10.32;;;;;;;;;;10484544;28;20514;-82
2023/10/06 03:59:15;;;;;;;22.48;9.93;;;;;;;;;;10484534;28;20025;-77
2023/10/06 04:04:15;;;;;;;17.25;9.15;;;;;;;;;;10501480;28;20020;-83
2023/10/06 04:09:27;;;;;;;20.17;9.87;;;;;;;;;;10486884;28;20028;-84
2023/10/06 04:14:31;;;;;;;20.88;10.25;;;;;;;;;;10493535;28;20017;-83
2023/10/06 04:19:34;;;;;;;27.10;10.35;;;;;;;;;;10489996;28;20389;-88
2023/10/06 04:24:34;;;;;;;23.25;9.68;;;;;;;;;;10484842;28;20039;-82
2023/10/06 04:29:36;;;;;;;25.02;11.30;;;;;;;;;;10487937;28;20040;-78
2023/10/06 04:34:38;;;;;;;34.90;30.75;;;;;;;;;;10485080;28;20036;-81
2023/10/06 04:39:39;;;;;;;24.95;13.98;;;;;;;;;;10486222;28;20107;-87
2023/10/06 04:44:39;;;;;;;39.70;19.13;;;;;;;;;;10485717;28;20120;-83
2023/10/06 04:49:40;;;;;;;34.50;26.47;;;;;;;;;;10485440;28;20496;-82
2023/10/06 04:54:40;;;;;;;66.32;59.65;;;;;;;;;;10494529;28;20021;-83
2023/10/06 04:59:42;;;;;;;134.77;125.60;;;;;;;;;;10492606;28;20023;-84
2023/10/06 05:04:42;;;;;;;22.95;11.20;;;;;;;;;;10492984;28;20023;-81
2023/10/06 05:09:44;;;;;;;28.15;10.52;;;;;;;;;;10499865;28;20020;-83
2023/10/06 05:14:46;;;;;;;25.38;11.43;;;;;;;;;;10504046;28;20074;-80
2023/10/06 05:19:46;;;;;;;26.13;11.13;;;;;;;;;;10476775;28;20024;-78
2023/10/06 05:24:47;;;;;;;26.25;10.05;;;;;;;;;;10503887;28;20154;-88
2023/10/06 05:29:50;;;;;;;27.55;10.82;;;;;;;;;;10491617;28;20111;-78
2023/10/06 05:34:50;;;;;;;21.48;11.45;;;;;;;;;;10490220;28;20040;-86
2023/10/06 05:39:51;;;;;;;24.27;10.25;;;;;;;;;;10491199;28;20527;-76
2023/10/06 05:44:53;;;;;;;24.42;10.07;;;;;;;;;;10491101;28;20397;-85
2023/10/06 05:49:54;;;;;;;21.77;10.63;;;;;;;;;;10464801;28;20052;-84
2023/10/06 05:54:57;;;;;;;29.13;16.10;;;;;;;;;;10486077;28;20032;-77
2023/10/06 05:59:57;;;;;;;21.27;15.85;;;;;;;;;;10488668;28;20561;-84
2023/10/06 06:04:58;;;;;;;107.30;100.63;;;;;;;;;;10471256;28;20028;-77
2023/10/06 06:09:58;;;;;;;55.87;51.13;;;;;;;;;;10489010;28;20517;-79
2023/10/06 06:14:59;;;;;;;420.60;391.55;;;;;;;;;;10490318;28;20270;-86
2023/10/06 06:20:07;;;;;;;15.68;7.30;;;;;;;;;;10490140;28;20488;-86
2023/10/06 06:25:09;;;;;;;19.53;8.63;;;;;;;;;;10488335;28;20571;-83
2023/10/06 06:30:12;;;;;;;23.02;20.23;;;;;;;;;;10487997;28;20491;-83
2023/10/06 06:35:13;;;;;;;154.95;145.15;;;;;;;;;;10488669;28;20041;-81
2023/10/06 06:40:14;;;;;;;26.80;23.83;;;;;;;;;;10488189;28;20032;-81
2023/10/06 06:45:15;;;;;;;27.30;20.45;;;;;;;;;;10488638;28;20031;-86
2023/10/06 06:50:17;;;;;;;17.63;10.55;;;;;;;;;;10487375;28;20047;-82
2023/10/06 06:55:20;;;;;;;20.35;16.40;;;;;;;;;;10488828;28;20546;-82
2023/10/06 07:00:23;;;;;;;43.47;40.35;;;;;;;;;;10488342;28;20039;-83
2023/10/06 07:05:23;;;;;;;133.00;122.75;;;;;;;;;;10487156;28;20028;-83
2023/10/06 07:10:25;;;;;;;89.87;82.57;;;;;;;;;;10486377;28;20028;-82
2023/10/06 07:15:29;;;;;;;75.35;69.55;;;;;;;;;;10472946;28;20037;-83
2023/10/06 07:20:30;;;;;;;193.52;180.90;;;;;;;;;;10468305;28;20436;-82
2023/10/06 07:25:31;;;;;;;297.17;276.27;;;;;;;;;;10458953;28;20024;-80
2023/10/06 07:30:34;;;;;;;388.85;359.73;;;;;;;;;;10487271;28;20108;-85
2023/10/06 07:35:43;;;;;;;800.03;735.65;;;;;;;;;;10486991;28;20044;-83
2023/10/06 07:40:43;;;;;;;544.08;501.95;;;;;;;;;;10491460;28;20026;-86
2023/10/06 07:45:44;;;;;;;483.83;448.52;;;;;;;;;;10505367;28;20455;-81
2023/10/06 07:50:44;;;;;;;337.67;311.38;;;;;;;;;;10503948;28;20028;-86
2023/10/06 07:55:44;;;;;;;866.15;796.38;;;;;;;;;;10489005;28;20028;-85
2023/10/06 08:00:45;;;;;;;19.20;6.28;;;;;;;;;;10486273;28;20122;-80
2023/10/06 08:05:45;;;;;;;63.35;58.50;;;;;;;;;;10494314;28;20101;-78
2023/10/06 08:10:45;;;;;;;139.57;130.85;;;;;;;;;;10503336;28;20428;-76
2023/10/06 08:15:46;;;;;;;29.08;26.25;;;;;;;;;;10504906;28;20817;-80
2023/10/06 08:20:49;;;;;;;260.40;240.60;;;;;;;;;;10497748;28;20016;-80
2023/10/06 08:25:52;;;;;;;422.58;391.83;;;;;;;;;;10507425;28;20066;-83
2023/10/06 08:30:53;;;;;;;710.45;653.20;;;;;;;;;;10514835;28;20044;-78
2023/10/06 08:36:10;;;;;;;73.53;68.27;;;;;;;;;;10516760;28;20040;-82
2023/10/06 08:41:11;;;;;;;501.35;463.75;;;;;;;;;;10513805;28;20515;-80
2023/10/06 08:46:13;;;;;;;710.53;653.33;;;;;;;;;;10513299;28;20024;-80
2023/10/06 08:51:14;;;;;;;652.90;599.85;;;;;;;;;;10511100;28;20020;-76
2023/10/06 08:56:15;;;;;;;282.42;261.95;;;;;;;;;;10522382;28;20025;-80
2023/10/06 09:01:18;;;;;;;877.80;806.13;;;;;;;;;;10518637;28;20120;-76
2023/10/06 09:06:19;;;;;;;1016.92;932.42;;;;;;;;;;10488045;28;20013;-79
2023/10/06 09:11:41;;;;;;;15.10;7.65;;;;;;;;;;10482627;28;20021;-77
2023/10/06 09:16:48;;;;;;;15.18;7.60;;;;;;;;;;10496822;28;20032;-87
2023/10/06 09:22:04;;;;;;;480.88;443.13;;;;;;;;;;10499112;28;20024;-86
2023/10/06 09:27:21;;;;;;;483.73;441.80;;;;;;;;;;10493383;28;20519;-83
2023/10/06 09:32:22;;;;;;;559.05;513.95;;;;;;;;;;10492961;28;20023;-81
2023/10/06 09:37:26;;;;;;;1039.10;954.50;;;;;;;;;;10486750;28;20123;-82
2023/10/06 09:42:29;;;;;;;734.22;670.20;;;;;;;;;;10475491;28;20312;-82
2023/10/06 09:47:31;;;;;;;11.30;8.43;;;;;;;;;;10466332;28;20090;-78
2023/10/06 09:52:33;;;;;;;17.10;8.32;;;;;;;;;;10485963;28;20034;-79
2023/10/06 09:57:34;;;;;;;851.30;779.05;;;;;;;;;;10487408;28;20086;-79
2023/10/06 10:02:34;;;;;;;12.63;6.95;;;;;;;;;;10487600;28;20028;-80
2023/10/06 10:07:35;;;;;;;15.35;6.95;;;;;;;;;;10512057;28;20021;-79
2023/10/06 10:12:42;;;;;;;14.38;7.15;;;;;;;;;;10499897;28;20111;-80
2023/10/06 10:18:04;;;;;;;13.77;6.90;;;;;;;;;;10464634;28;20032;-88
2023/10/06 10:23:04;;;;;;;14.32;7.07;;;;;;;;;;10467354;28;20048;-85
2023/10/06 10:28:14;;;;;;;14.17;7.07;;;;;;;;;;10464466;28;20028;-80
2023/10/06 10:33:24;;;;;;;16.00;8.02;;;;;;;;;;10487988;28;20311;-78
2023/10/06 10:38:27;;;;;;;17.02;6.72;;;;;;;;;;10488421;28;20036;-82
2023/10/06 10:43:27;;;;;;;11.25;6.22;;;;;;;;;;10486676;28;20039;-82
2023/10/06 10:48:38;;;;;;;11.07;5.63;;;;;;;;;;10486712;28;20024;-81
2023/10/06 10:53:43;;;;;;;17.30;7.03;;;;;;;;;;10469539;28;20020;-81
2023/10/06 10:58:49;;;;;;;11.27;6.32;;;;;;;;;;10457569;28;20489;-83
2023/10/06 11:04:08;;;;;;;13.63;6.63;;;;;;;;;;10484863;28;20115;-83
2023/10/06 11:09:25;;;;;;;9.52;5.32;;;;;;;;;;10487582;28;20019;-83
2023/10/06 11:14:26;;;;;;;17.25;8.35;;;;;;;;;;10490790;28;20163;-81
2023/10/06 11:19:27;;;;;;;12.98;5.70;;;;;;;;;;10469115;28;20028;-83
2023/10/06 11:24:28;;;;;;;17.97;5.80;;;;;;;;;;10486509;28;20024;-82
2023/10/06 11:29:32;;;;;;;11.70;5.68;;;;;;;;;;10485241;28;20059;-81
2023/10/06 11:34:32;;;;;;;11.95;5.95;;;;;;;;;;10486491;28;20827;-80
2023/10/06 11:39:33;;;;;;;11.40;6.37;;;;;;;;;;10484526;28;20032;-80
2023/10/06 11:44:41;;;;;;;9.03;5.40;;;;;;;;;;10485347;28;20484;-86
2023/10/06 11:49:55;;;;;;;11.45;4.93;;;;;;;;;;10485404;28;20286;-77
2023/10/06 11:54:57;;;;;;;7.80;4.95;;;;;;;;;;10484272;28;20024;-81
2023/10/06 11:59:58;;;;;;;12.07;4.70;;;;;;;;;;10479095;28;20512;-84
2023/10/06 12:05:08;;;;;;;12.38;5.63;;;;;;;;;;10475317;28;20063;-82
2023/10/06 12:10:08;;;;;;;12.25;4.75;;;;;;;;;;10479587;28;20511;-82
2023/10/06 12:15:13;;;;;;;13.13;5.25;;;;;;;;;;10478521;28;20147;-83
2023/10/06 12:20:16;;;;;;;8.80;4.20;;;;;;;;;;10479726;28;20028;-85
2023/10/06 12:25:16;;;;;;;11.82;4.03;;;;;;;;;;10475412;28;20021;-77
2023/10/06 12:30:17;;;;;;;13.17;4.90;;;;;;;;;;10494381;28;20025;-82
2023/10/06 12:35:21;;;;;;;8.15;3.80;;;;;;;;;;10496976;28;20294;-80
2023/10/06 12:40:22;;;;;;;6.95;3.60;;;;;;;;;;10472849;28;20584;-86
2023/10/06 12:45:23;;;;;;;15.60;3.67;;;;;;;;;;10478378;28;20059;-76
2023/10/06 12:50:23;;;;;;;10.77;4.03;;;;;;;;;;10475882;28;20037;-78
2023/10/06 12:55:28;;;;;;;8.75;3.50;;;;;;;;;;10482143;28;20340;-81
2023/10/06 13:00:29;;;;;;;9.90;3.63;;;;;;;;;;10483833;28;20021;-80
2023/10/06 13:05:31;;;;;;;7.13;3.08;;;;;;;;;;10479186;28;20495;-79
2023/10/06 13:10:31;;;;;;;9.80;3.95;;;;;;;;;;10475365;28;20021;-83
2023/10/06 13:15:31;;;;;;;12.25;4.18;;;;;;;;;;10479161;28;20233;-81
2023/10/06 13:20:32;;;;;;;7.50;3.80;;;;;;;;;;10490103;28;20040;-81
2023/10/06 13:25:34;;;;;;;8.70;4.25;;;;;;;;;;10483417;28;20411;-82
2023/10/06 13:30:34;;;;;;;9.93;3.53;;;;;;;;;;10474343;28;20028;-85
2023/10/06 13:35:35;;;;;;;12.23;3.90;;;;;;;;;;10468805;28;20048;-78
2023/10/06 13:40:37;;;;;;;6.70;3.65;;;;;;;;;;10477111;28;20454;-83
2023/10/06 13:45:44;;;;;;;6.68;2.92;;;;;;;;;;10478181;28;20024;-75
2023/10/06 13:50:45;;;;;;;9.75;3.38;;;;;;;;;;10460636;28;20024;-82
2023/10/06 13:55:46;;;;;;;11.35;3.78;;;;;;;;;;10474065;28;20542;-83
2023/10/06 14:00:46;;;;;;;7.73;3.43;;;;;;;;;;10478671;28;20162;-83
2023/10/06 14:05:51;;;;;;;7.13;3.43;;;;;;;;;;10482430;28;20454;-77
2023/10/06 14:10:52;;;;;;;9.85;3.72;;;;;;;;;;10480964;28;20032;-84
2023/10/06 14:15:55;;;;;;;8.23;4.47;;;;;;;;;;10484941;28;20025;-78
2023/10/06 14:20:57;;;;;;;13.93;3.75;;;;;;;;;;10476638;28;20101;-79
2023/10/06 14:26:00;;;;;;;7.78;3.85;;;;;;;;;;10480209;28;20250;-82
2023/10/06 14:31:16;;;;;;;6.07;3.33;;;;;;;;;;10458841;28;20116;-79
2023/10/06 14:46:42;;;;;;;4.25;2.35;;;;;;;;;;10484477;28;20021;-78
2023/10/06 14:51:43;;;;;;;4.68;2.17;;;;;;;;;;10470019;28;20028;-78
2023/10/06 14:56:45;;;;;;;6.57;2.50;;;;;;;;;;10463962;28;20023;-82
2023/10/06 15:01:45;;;;;;;6.88;3.00;;;;;;;;;;10471767;28;20028;-85
2023/10/06 15:06:45;;;;;;;6.80;3.03;;;;;;;;;;10471053;28;20009;-82
2023/10/06 15:11:50;;;;;;;8.35;2.50;;;;;;;;;;10472228;28;20395;-78
2023/10/06 15:16:50;;;;;;;6.53;2.90;;;;;;;;;;10471568;28;20043;-77
2023/10/06 15:21:54;;;;;;;9.10;3.08;;;;;;;;;;10464380;28;20017;-84
2023/10/06 15:26:56;;;;;;;8.35;3.58;;;;;;;;;;10474844;28;20500;-81
2023/10/06 15:31:57;;;;;;;11.88;2.80;;;;;;;;;;10490656;28;20024;-81
2023/10/06 15:36:57;;;;;;;5.47;2.88;;;;;;;;;;10474791;28;20043;-81
2023/10/06 15:41:58;;;;;;;10.13;4.60;;;;;;;;;;10468111;28;20024;-83
2023/10/06 15:46:58;;;;;;;8.75;3.63;;;;;;;;;;10467991;28;20043;-79
2023/10/06 15:51:59;;;;;;;8.43;3.45;;;;;;;;;;10484695;28;20035;-84
2023/10/06 15:57:00;;;;;;;5.50;2.80;;;;;;;;;;10473227;28;20105;-81
2023/10/06 16:02:02;;;;;;;8.73;3.13;;;;;;;;;;10442058;28;20021;-78
2023/10/06 16:07:03;;;;;;;8.18;3.47;;;;;;;;;;10468574;28;20036;-87
2023/10/06 16:12:04;;;;;;;14.63;4.18;;;;;;;;;;10478202;28;20052;-88
2023/10/06 16:17:04;;;;;;;15.68;2.97;;;;;;;;;;10468698;28;20115;-78
2023/10/06 16:22:09;;;;;;;12.88;3.58;;;;;;;;;;10475745;28;20093;-81
2023/10/06 16:27:11;;;;;;;18.85;3.47;;;;;;;;;;10450747;28;20037;-83
2023/10/06 16:32:12;;;;;;;12.88;3.80;;;;;;;;;;10467712;28;20028;-83
2023/10/06 16:37:15;;;;;;;9.02;3.90;;;;;;;;;;10475514;28;20078;-83
2023/10/06 16:42:15;;;;;;;11.27;3.33;;;;;;;;;;10468136;28;20490;-82
2023/10/06 16:47:16;;;;;;;6.90;4.03;;;;;;;;;;10467470;28;20139;-83
2023/10/06 16:52:16;;;;;;;6.18;3.47;;;;;;;;;;10464800;28;20029;-80
2023/10/06 16:57:16;;;;;;;22.35;6.63;;;;;;;;;;10464658;28;20564;-81
2023/10/06 17:02:17;;;;;;;9.67;3.60;;;;;;;;;;10465158;28;20115;-81
2023/10/06 17:07:17;;;;;;;11.32;3.63;;;;;;;;;;10472465;28;20786;-84
2023/10/06 17:12:19;;;;;;;11.15;3.60;;;;;;;;;;10465083;28;20028;-81
2023/10/06 17:17:22;;;;;;;7.60;3.30;;;;;;;;;;10476423;28;20028;-83
2023/10/06 17:22:24;;;;;;;7.50;3.30;;;;;;;;;;10467749;28;20465;-81
2023/10/06 17:27:24;;;;;;;17.05;4.45;;;;;;;;;;10463432;28;20021;-84
2023/10/06 17:32:26;;;;;;;13.98;3.72;;;;;;;;;;10466898;28;20024;-80
2023/10/06 17:37:26;;;;;;;8.88;4.05;;;;;;;;;;10464808;28;20048;-85
2023/10/06 17:42:29;;;;;;;12.18;4.10;;;;;;;;;;10460581;28;20024;-79
2023/10/06 17:47:31;;;;;;;15.35;4.55;;;;;;;;;;10458006;28;20472;-82
2023/10/06 17:52:33;;;;;;;9.68;3.35;;;;;;;;;;10459948;28;20016;-79
2023/10/06 17:57:34;;;;;;;6.90;3.92;;;;;;;;;;10454487;28;20073;-84
2023/10/06 18:02:34;;;;;;;19.05;4.38;;;;;;;;;;10457014;28;20393;-79
2023/10/06 18:07:38;;;;;;;15.60;3.88;;;;;;;;;;10486579;28;20472;-81
2023/10/06 18:12:40;;;;;;;9.90;4.68;;;;;;;;;;10475435;28;20047;-79
2023/10/06 18:17:41;;;;;;;10.70;4.97;;;;;;;;;;10493905;28;20607;-82
2023/10/06 18:22:42;;;;;;;10.82;4.00;;;;;;;;;;10478363;28;20028;-82
2023/10/06 18:27:42;;;;;;;10.00;4.18;;;;;;;;;;10462689;28;20472;-77
2023/10/06 18:32:43;;;;;;;28.08;25.48;;;;;;;;;;10461008;28;20569;-83
2023/10/06 18:37:43;;;;;;;8.27;3.87;;;;;;;;;;10465048;28;20083;-79
2023/10/06 18:42:44;;;;;;;8.43;2.78;;;;;;;;;;10445615;28;20098;-83
2023/10/06 18:47:44;;;;;;;12.97;3.73;;;;;;;;;;10459197;28;20116;-78
2023/10/06 18:52:47;;;;;;;13.00;4.55;;;;;;;;;;10454493;28;20885;-80
2023/10/06 18:57:47;;;;;;;38.20;34.95;;;;;;;;;;10471987;28;20529;-77
2023/10/06 19:02:48;;;;;;;7.77;3.27;;;;;;;;;;10458005;28;20162;-78
2023/10/06 19:07:50;;;;;;;84.30;79.28;;;;;;;;;;10460420;28;20293;-80
2023/10/06 19:12:52;;;;;;;9.63;4.18;;;;;;;;;;10465066;28;20185;-82
2023/10/06 19:17:52;;;;;;;10.30;7.43;;;;;;;;;;10457272;28;20028;-79
2023/10/06 19:22:52;;;;;;;165.63;155.85;;;;;;;;;;10465318;28;20638;-78
2023/10/06 19:27:56;;;;;;;169.30;159.43;;;;;;;;;;10452751;28;20055;-79
2023/10/06 19:32:56;;;;;;;14.75;5.05;;;;;;;;;;10452662;28;20048;-79
2023/10/06 19:37:56;;;;;;;13.88;6.75;;;;;;;;;;10467876;28;20197;-78
2023/10/06 19:42:56;;;;;;;14.93;13.52;;;;;;;;;;10467151;28;20036;-83
2023/10/06 19:47:57;;;;;;;53.58;50.10;;;;;;;;;;10472624;28;20020;-78
2023/10/06 19:53:00;;;;;;;66.05;62.35;;;;;;;;;;10461596;28;20087;-84
2023/10/06 19:58:04;;;;;;;140.63;132.75;;;;;;;;;;10450504;28;20025;-78
2023/10/06 20:03:05;;;;;;;159.07;150.52;;;;;;;;;;10455637;28;20024;-82
2023/10/06 20:08:06;;;;;;;174.73;164.63;;;;;;;;;;10460390;28;20020;-82
2023/10/06 20:13:07;;;;;;;227.23;214.53;;;;;;;;;;10437486;28;20025;-78
2023/10/06 20:18:07;;;;;;;261.80;247.43;;;;;;;;;;10452103;28;20028;-76
2023/10/06 20:23:09;;;;;;;657.80;615.33;;;;;;;;;;10455802;28;20296;-79
2023/10/06 20:28:09;;;;;;;886.28;821.63;;;;;;;;;;10460131;28;20481;-79
2023/10/06 20:33:10;;;;;;;904.65;840.60;;;;;;;;;;10466016;28;20033;-80
2023/10/06 20:38:16;;;;;;;869.55;798.97;;;;;;;;;;10459322;28;20479;-82
2023/10/06 20:43:18;;;;;;;897.80;823.78;;;;;;;;;;10476117;28;20017;-80
2023/10/06 20:48:19;;;;;;;923.22;850.33;;;;;;;;;;10462829;28;20491;-79
2023/10/06 20:53:20;;;;;;;914.78;823.88;;;;;;;;;;10458175;28;20109;-81
2023/10/06 20:58:20;;;;;;;898.08;818.20;;;;;;;;;;10463566;28;20057;-76
2023/10/06 21:03:20;;;;;;;906.42;825.78;;;;;;;;;;10467583;28;20120;-79
2023/10/06 21:08:21;;;;;;;925.78;842.25;;;;;;;;;;10467355;28;20052;-80
2023/10/06 21:13:22;;;;;;;911.58;828.80;;;;;;;;;;10452896;28;20025;-76
2023/10/06 21:18:22;;;;;;;858.85;768.20;;;;;;;;;;10460405;28;20472;-77
2023/10/06 21:23:23;;;;;;;901.90;819.78;;;;;;;;;;10458712;28;20480;-76
2023/10/06 21:28:23;;;;;;;919.92;834.78;;;;;;;;;;10464644;28;20017;-76
2023/10/06 21:33:23;;;;;;;894.95;806.33;;;;;;;;;;10456073;28;20025;-84
2023/10/06 21:38:23;;;;;;;873.42;784.88;;;;;;;;;;10454281;28;20500;-79
2023/10/06 21:43:25;;;;;;;889.05;799.45;;;;;;;;;;10465014;28;20202;-79
2023/10/06 21:48:25;;;;;;;892.13;801.40;;;;;;;;;;10485029;28;20025;-75
2023/10/06 21:53:26;;;;;;;858.08;768.08;;;;;;;;;;10458801;28;20032;-75
2023/10/06 21:58:26;;;;;;;887.22;795.90;;;;;;;;;;10456853;28;20059;-79
2023/10/06 22:03:28;;;;;;;919.25;826.22;;;;;;;;;;10477408;28;20021;-75
2023/10/06 22:08:47;;;;;;;820.85;731.75;;;;;;;;;;10452432;28;20025;-79
2023/10/06 22:13:54;;;;;;;846.20;757.13;;;;;;;;;;10465487;28;20687;-83
2023/10/06 22:18:54;;;;;;;867.92;777.45;;;;;;;;;;10459909;28;20094;-77
2023/10/06 22:23:56;;;;;;;854.10;765.13;;;;;;;;;;10462885;28;20070;-79
2023/10/06 22:28:56;;;;;;;872.42;783.05;;;;;;;;;;10466635;28;20036;-82
2023/10/06 22:33:57;;;;;;;833.97;749.72;;;;;;;;;;10463742;28;20583;-79
2023/10/06 22:38:58;;;;;;;847.47;759.30;;;;;;;;;;10456555;28;20032;-79
2023/10/06 22:43:58;;;;;;;870.40;780.60;;;;;;;;;;10459322;28;20023;-79
2023/10/06 22:48:59;;;;;;;874.13;791.97;;;;;;;;;;10480131;28;20017;-77
2023/10/06 22:54:00;;;;;;;895.85;816.55;;;;;;;;;;10454864;28;20347;-80
2023/10/06 22:59:00;;;;;;;868.85;792.05;;;;;;;;;;10454483;28;20025;-82
2023/10/06 23:04:01;;;;;;;919.60;839.08;;;;;;;;;;10462860;28;20047;-79
2023/10/06 23:09:03;;;;;;;901.38;820.67;;;;;;;;;;10474190;28;20032;-80
2023/10/06 23:14:08;;;;;;;901.00;825.33;;;;;;;;;;10477085;28;20055;-80
2023/10/06 23:19:12;;;;;;;898.15;815.42;;;;;;;;;;10459931;28;20024;-76
2023/10/06 23:24:15;;;;;;;905.80;819.28;;;;;;;;;;10457944;28;20024;-76
2023/10/06 23:29:19;;;;;;;893.88;803.95;;;;;;;;;;10482077;28;20806;-80
2023/10/06 23:34:20;;;;;;;918.80;827.13;;;;;;;;;;10476966;28;20048;-82
2023/10/06 23:39:25;;;;;;;885.78;797.10;;;;;;;;;;10481816;28;20028;-76
2023/10/06 23:44:29;;;;;;;888.42;796.10;;;;;;;;;;10467506;28;20033;-80
2023/10/06 23:49:30;;;;;;;868.35;777.03;;;;;;;;;;10483986;28;20491;-80
2023/10/06 23:54:33;;;;;;;868.37;777.30;;;;;;;;;;10466205;28;20025;-83
2023/10/06 23:59:36;;;;;;;870.08;779.63;;;;;;;;;;10485108;28;20034;-78
